createdAt,value
2023-05-11T00:00:50.960Z,27.90
2023-05-11T00:03:17.824Z,26.70
2023-05-11T00:05:48.857Z,27.10
2023-05-11T00:08:17.150Z,27.75
2023-05-11T00:10:47.927Z,27.27
2023-05-11T00:13:14.680Z,26.08
2023-05-11T00:15:41.641Z,27.00
2023-05-11T00:18:08.379Z,25.58
2023-05-11T00:20:35.054Z,26.23
2023-05-11T00:23:01.799Z,25.15
2023-05-11T00:25:28.473Z,26.45
2023-05-11T00:27:55.226Z,24.98
2023-05-11T00:30:21.995Z,25.25
2023-05-11T00:32:49.950Z,25.00
2023-05-11T00:35:16.601Z,26.13
2023-05-11T00:37:43.200Z,25.20
2023-05-11T00:40:10.189Z,25.63
2023-05-11T00:42:36.871Z,23.58
2023-05-11T00:45:06.606Z,24.70
2023-05-11T00:47:33.536Z,23.75
2023-05-11T00:50:00.547Z,23.08
2023-05-11T00:52:27.336Z,23.95
2023-05-11T00:54:54.063Z,22.63
2023-05-11T00:57:21.354Z,22.83
2023-05-11T00:59:49.447Z,23.05
2023-05-11T01:02:16.730Z,22.83
2023-05-11T01:04:43.926Z,21.25
2023-05-11T01:07:34.458Z,23.10
2023-05-11T01:10:10.213Z,22.05
2023-05-11T01:12:58.861Z,23.33
2023-05-11T01:15:41.083Z,23.02
2023-05-11T01:18:16.597Z,21.15
2023-05-11T01:20:46.236Z,21.92
2023-05-11T01:23:25.664Z,21.40
2023-05-11T01:26:07.653Z,22.95
2023-05-11T01:29:02.386Z,22.77
2023-05-11T01:31:31.960Z,23.30
2023-05-11T01:34:06.304Z,23.42
2023-05-11T01:36:37.654Z,24.67
2023-05-11T01:39:10.442Z,24.48
2023-05-11T01:41:40.098Z,22.55
2023-05-11T01:44:10.019Z,22.88
2023-05-11T01:46:38.103Z,22.40
2023-05-11T01:49:07.500Z,21.02
2023-05-11T01:51:37.548Z,19.85
2023-05-11T01:54:08.829Z,19.15
2023-05-11T01:56:37.757Z,21.40
2023-05-11T01:59:04.978Z,19.48
2023-05-11T02:01:34.044Z,19.50
2023-05-11T02:04:02.299Z,20.05
2023-05-11T02:06:31.104Z,18.85
2023-05-11T02:08:59.472Z,20.42
2023-05-11T02:11:27.921Z,19.77
2023-05-11T02:13:57.080Z,19.25
2023-05-11T02:16:25.344Z,19.73
2023-05-11T02:18:54.271Z,19.88
2023-05-11T02:21:22.107Z,21.33
2023-05-11T02:23:49.971Z,21.17
2023-05-11T02:26:17.062Z,19.70
2023-05-11T02:28:44.155Z,20.90
2023-05-11T02:31:17.705Z,17.95
2023-05-11T02:33:48.217Z,18.77
2023-05-11T02:36:19.296Z,18.45
2023-05-11T02:38:47.571Z,16.58
2023-05-11T02:41:18.332Z,17.08
2023-05-11T02:43:49.245Z,16.85
2023-05-11T02:46:20.118Z,16.00
2023-05-11T02:48:54.505Z,17.85
2023-05-11T02:51:26.523Z,19.05
2023-05-11T02:53:55.904Z,17.83
2023-05-11T02:56:24.572Z,18.92
2023-05-11T02:58:51.160Z,19.88
2023-05-11T03:01:18.412Z,19.42
2023-05-11T03:03:45.371Z,19.27
2023-05-11T03:06:12.477Z,18.55
2023-05-11T03:08:40.562Z,17.52
2023-05-11T03:11:09.109Z,18.00
2023-05-11T03:13:35.937Z,17.52
2023-05-11T03:16:03.139Z,16.98
2023-05-11T03:18:30.962Z,16.75
2023-05-11T03:20:59.379Z,17.17
2023-05-11T03:23:26.681Z,17.10
2023-05-11T03:25:54.225Z,17.40
2023-05-11T03:28:24.199Z,15.40
2023-05-11T03:30:52.986Z,16.33
2023-05-11T03:33:21.008Z,16.70
2023-05-11T03:35:49.842Z,16.83
2023-05-11T03:38:17.290Z,16.92
2023-05-11T03:40:45.777Z,17.20
2023-05-11T03:43:16.417Z,18.10
2023-05-11T03:45:44.124Z,15.85
2023-05-11T03:48:11.916Z,17.73
2023-05-11T03:50:39.396Z,16.38
2023-05-11T03:53:06.638Z,15.65
2023-05-11T03:55:33.407Z,16.48
2023-05-11T03:58:01.035Z,15.50
2023-05-11T04:00:28.608Z,17.38
2023-05-11T04:02:55.359Z,16.00
2023-05-11T04:05:21.903Z,16.98
2023-05-11T04:07:50.374Z,17.27
2023-05-11T04:10:17.083Z,17.70
2023-05-11T04:12:43.699Z,16.02
2023-05-11T04:15:10.682Z,17.75
2023-05-11T04:17:37.284Z,16.38
2023-05-11T04:20:04.104Z,17.73
2023-05-11T04:22:30.779Z,17.13
2023-05-11T04:24:57.347Z,17.42
2023-05-11T04:27:23.903Z,16.90
2023-05-11T04:29:50.728Z,16.65
2023-05-11T04:32:17.383Z,15.75
2023-05-11T04:34:44.042Z,15.57
2023-05-11T04:37:10.693Z,15.02
2023-05-11T04:39:37.289Z,15.38
2023-05-11T04:42:04.051Z,15.45
2023-05-11T04:44:30.778Z,14.73
2023-05-11T04:46:57.484Z,14.25
2023-05-11T04:49:24.214Z,13.73
2023-05-11T04:51:50.866Z,13.52
2023-05-11T04:54:17.529Z,14.32
2023-05-11T04:56:44.147Z,13.82
2023-05-11T04:59:10.838Z,12.50
2023-05-11T05:01:37.705Z,12.75
2023-05-11T05:04:04.425Z,14.18
2023-05-11T05:06:32.138Z,12.10
2023-05-11T05:08:58.773Z,14.02
2023-05-11T05:11:25.534Z,12.88
2023-05-11T05:13:52.160Z,13.75
2023-05-11T05:16:18.903Z,12.75
2023-05-11T05:18:45.578Z,13.55
2023-05-11T05:21:12.164Z,12.95
2023-05-11T05:23:39.020Z,13.77
2023-05-11T05:26:05.653Z,12.85
2023-05-11T05:28:32.286Z,13.48
2023-05-11T05:30:58.971Z,12.32
2023-05-11T05:33:25.650Z,13.45
2023-05-11T05:35:52.303Z,13.63
2023-05-11T05:38:20.154Z,13.60
2023-05-11T05:40:47.003Z,12.45
2023-05-11T05:43:13.821Z,13.00
2023-05-11T05:45:40.430Z,12.93
2023-05-11T05:48:07.174Z,13.20
2023-05-11T05:50:33.870Z,13.27
2023-05-11T05:53:00.671Z,13.95
2023-05-11T05:55:27.375Z,12.73
2023-05-11T05:57:54.058Z,13.93
2023-05-11T06:00:20.910Z,14.65
2023-05-11T06:02:47.856Z,14.85
2023-05-11T06:05:14.463Z,13.82
2023-05-11T06:07:41.054Z,13.90
2023-05-11T06:10:07.663Z,13.80
2023-05-11T06:12:34.340Z,13.80
2023-05-11T06:15:01.250Z,13.50
2023-05-11T06:17:28.422Z,13.40
2023-05-11T06:19:55.165Z,14.85
2023-05-11T06:22:21.916Z,13.23
2023-05-11T06:24:48.608Z,13.35
2023-05-11T06:27:17.940Z,13.30
2023-05-11T06:29:44.910Z,12.55
2023-05-11T06:32:12.079Z,13.73
2023-05-11T06:34:39.346Z,12.43
2023-05-11T06:37:06.104Z,13.18
2023-05-11T06:39:36.221Z,11.77
2023-05-11T06:42:06.455Z,12.00
2023-05-11T06:44:34.196Z,11.80
2023-05-11T06:47:01.053Z,10.30
2023-05-11T06:49:27.660Z,10.88
2023-05-11T06:51:54.225Z,9.65
2023-05-11T06:54:20.864Z,8.52
2023-05-11T06:56:47.403Z,8.77
2023-05-11T06:59:14.238Z,9.23
2023-05-11T07:01:41.149Z,9.68
2023-05-11T07:04:07.945Z,9.75
2023-05-11T07:06:34.674Z,9.85
2023-05-11T07:09:01.541Z,10.80
2023-05-11T07:11:28.285Z,11.05
2023-05-11T07:13:55.005Z,10.52
2023-05-11T07:16:21.659Z,10.10
2023-05-11T07:18:48.357Z,10.40
2023-05-11T07:21:15.333Z,9.27
2023-05-11T07:23:42.749Z,8.13
2023-05-11T07:26:09.453Z,8.30
2023-05-11T07:28:37.036Z,7.97
2023-05-11T07:31:04.076Z,8.88
2023-05-11T07:33:30.923Z,8.27
2023-05-11T07:35:57.909Z,7.32
2023-05-11T07:38:24.513Z,8.00
2023-05-11T07:40:51.108Z,7.95
2023-05-11T07:43:17.658Z,8.10
2023-05-11T07:45:44.298Z,7.85
2023-05-11T07:48:11.230Z,7.90
2023-05-11T07:50:38.096Z,8.18
2023-05-11T07:53:04.811Z,8.00
2023-05-11T07:55:31.443Z,7.78
2023-05-11T07:57:58.154Z,7.47
2023-05-11T08:00:24.925Z,7.38
2023-05-11T08:02:51.704Z,6.80
2023-05-11T08:05:19.798Z,7.22
2023-05-11T08:07:47.221Z,7.20
2023-05-11T08:10:13.912Z,7.47
2023-05-11T08:12:40.616Z,8.20
2023-05-11T08:15:08.200Z,7.57
2023-05-11T08:17:35.710Z,7.95
2023-05-11T08:20:06.759Z,8.18
2023-05-11T08:22:33.449Z,7.90
2023-05-11T08:24:59.983Z,7.43
2023-05-11T08:27:26.562Z,8.27
2023-05-11T08:29:53.099Z,7.47
2023-05-11T08:32:19.903Z,6.80
2023-05-11T08:34:46.835Z,6.97
2023-05-11T08:37:13.610Z,6.78
2023-05-11T08:39:47.406Z,6.75
2023-05-11T08:42:18.555Z,6.35
2023-05-11T08:44:45.474Z,7.10
2023-05-11T08:49:42.678Z,6.88
2023-05-11T08:52:10.694Z,6.78
2023-05-11T08:54:37.326Z,6.78
2023-05-11T08:57:04.391Z,7.53
2023-05-11T08:59:31.034Z,6.75
2023-05-11T09:01:59.343Z,6.88
2023-05-11T09:04:26.995Z,6.68
2023-05-11T09:06:54.810Z,6.50
2023-05-11T09:09:21.591Z,6.80
2023-05-11T09:11:48.952Z,6.43
2023-05-11T09:14:15.758Z,6.43
2023-05-11T09:16:42.372Z,6.15
2023-05-11T09:19:15.220Z,6.63
2023-05-11T09:21:42.120Z,6.25
2023-05-11T09:24:12.873Z,5.82
2023-05-11T09:26:39.729Z,6.45
2023-05-11T09:29:06.691Z,6.25
2023-05-11T09:31:38.794Z,6.75
2023-05-11T09:34:22.990Z,6.65
2023-05-11T09:36:56.995Z,5.95
2023-05-11T09:39:42.035Z,7.05
2023-05-11T09:42:17.264Z,6.60
2023-05-11T09:44:45.696Z,6.88
2023-05-11T09:47:16.382Z,6.65
2023-05-11T09:49:44.739Z,6.75
2023-05-11T09:52:21.061Z,7.20
2023-05-11T09:54:51.630Z,8.85
2023-05-11T09:57:24.445Z,9.07
2023-05-11T09:59:51.437Z,7.88
2023-05-11T10:02:29.717Z,8.40
2023-05-11T10:05:01.691Z,7.65
2023-05-11T10:07:34.160Z,7.60
2023-05-11T10:10:03.480Z,7.97
2023-05-11T10:12:32.759Z,7.65
2023-05-11T10:15:08.508Z,7.15
2023-05-11T10:17:36.686Z,7.50
2023-05-11T10:20:05.743Z,7.25
2023-05-11T10:22:32.608Z,6.53
2023-05-11T10:24:59.942Z,5.85
2023-05-11T10:27:27.084Z,5.68
2023-05-11T10:29:54.484Z,5.68
2023-05-11T10:32:21.519Z,6.28
2023-05-11T10:34:50.190Z,6.20
2023-05-11T10:37:17.567Z,5.63
2023-05-11T10:39:48.439Z,6.38
2023-05-11T10:42:27.908Z,6.10
2023-05-11T10:45:19.038Z,5.53
2023-05-11T10:48:06.139Z,5.32
2023-05-11T10:50:42.953Z,5.18
2023-05-11T10:53:15.966Z,4.60
2023-05-11T10:56:17.999Z,5.00
2023-05-11T10:58:54.628Z,4.65
2023-05-11T11:01:38.194Z,5.40
2023-05-11T11:04:06.950Z,5.10
2023-05-11T11:06:35.744Z,4.55
2023-05-11T11:09:05.272Z,5.22
2023-05-11T11:11:33.209Z,4.18
2023-05-11T11:14:02.506Z,4.20
2023-05-11T11:16:30.201Z,3.80
2023-05-11T11:19:29.238Z,4.53
2023-05-11T11:22:00.617Z,4.22
2023-05-11T11:24:39.197Z,4.43
2023-05-11T11:27:07.021Z,4.45
2023-05-11T11:29:38.156Z,3.85
2023-05-11T11:32:20.137Z,3.63
2023-05-11T11:34:47.918Z,4.05
2023-05-11T11:37:16.599Z,3.67
2023-05-11T11:39:43.255Z,3.38
2023-05-11T11:42:12.345Z,3.40
2023-05-11T11:44:40.465Z,3.05
2023-05-11T11:47:17.611Z,3.97
2023-05-11T11:49:47.159Z,3.63
2023-05-11T11:52:29.102Z,3.65
2023-05-11T11:54:59.612Z,3.42
2023-05-11T11:57:35.085Z,3.80
2023-05-11T12:00:05.557Z,3.30
2023-05-11T12:02:33.573Z,3.28
2023-05-11T12:05:09.772Z,3.70
2023-05-11T12:07:41.158Z,4.15
2023-05-11T12:10:08.112Z,4.70
2023-05-11T12:12:37.674Z,4.38
2023-05-11T12:15:06.694Z,5.00
2023-05-11T12:17:34.691Z,4.57
2023-05-11T12:20:19.046Z,4.50
2023-05-11T12:22:46.998Z,4.68
2023-05-11T12:25:15.786Z,4.43
2023-05-11T12:27:58.283Z,4.90
2023-05-11T12:30:26.826Z,4.47
2023-05-11T12:35:25.655Z,4.05
2023-05-11T12:37:52.718Z,3.92
2023-05-11T12:40:20.110Z,4.63
2023-05-11T12:42:53.899Z,4.40
2023-05-11T12:45:22.538Z,4.22
2023-05-11T12:47:51.699Z,4.65
2023-05-11T12:50:19.164Z,4.32
2023-05-11T12:52:46.159Z,4.70
2023-05-11T12:55:12.729Z,4.30
2023-05-11T12:57:40.202Z,5.07
2023-05-11T13:00:14.613Z,4.80
2023-05-11T13:02:52.859Z,5.22
2023-05-11T13:05:25.406Z,5.07
2023-05-11T13:08:04.915Z,5.10
2023-05-11T13:10:32.228Z,4.97
2023-05-11T13:12:59.263Z,5.28
2023-05-11T13:15:27.647Z,5.07
2023-05-11T13:17:59.766Z,5.25
2023-05-11T13:20:32.461Z,5.63
2023-05-11T13:23:25.615Z,5.65
2023-05-11T13:25:53.926Z,4.80
2023-05-11T13:28:23.338Z,4.35
2023-05-11T13:30:53.671Z,4.32
2023-05-11T13:33:21.105Z,4.72
2023-05-11T13:35:48.563Z,4.90
2023-05-11T13:38:15.313Z,4.90
2023-05-11T13:40:41.933Z,5.13
2023-05-11T13:43:09.174Z,4.68
2023-05-11T13:45:41.052Z,5.18
2023-05-11T13:48:07.844Z,5.35
2023-05-11T13:50:36.400Z,5.40
2023-05-11T13:53:05.389Z,5.10
2023-05-11T13:55:41.881Z,5.22
2023-05-11T13:58:10.068Z,5.53
2023-05-11T14:01:08.071Z,5.28
2023-05-11T14:03:51.313Z,5.15
2023-05-11T14:09:03.230Z,5.05
2023-05-11T14:11:34.074Z,5.55
2023-05-11T14:14:26.210Z,5.05
2023-05-11T14:19:41.220Z,5.53
2023-05-11T14:22:08.868Z,5.45
2023-05-11T14:24:38.097Z,4.40
2023-05-11T14:27:04.893Z,4.45
2023-05-11T14:29:31.658Z,5.28
2023-05-11T14:31:58.336Z,4.97
2023-05-11T14:34:25.166Z,5.32
2023-05-11T14:36:51.908Z,5.25
2023-05-11T14:39:18.632Z,5.93
2023-05-11T14:41:45.487Z,5.82
2023-05-11T14:44:12.309Z,5.25
2023-05-11T14:46:39.477Z,4.93
2023-05-11T14:49:06.241Z,4.47
2023-05-11T14:54:37.122Z,5.35
2023-05-11T14:57:04.716Z,4.40
2023-05-11T14:59:31.495Z,4.65
2023-05-11T15:01:58.158Z,4.60
2023-05-11T15:04:25.482Z,4.80
2023-05-11T15:06:52.159Z,5.43
2023-05-11T15:09:20.995Z,5.15
2023-05-11T15:11:47.763Z,5.03
2023-05-11T15:14:14.506Z,4.78
2023-05-11T15:16:41.249Z,4.80
2023-05-11T15:19:08.389Z,5.15
2023-05-11T15:21:35.207Z,4.82
2023-05-11T15:24:02.208Z,5.15
2023-05-11T15:26:29.014Z,4.97
2023-05-11T15:28:56.847Z,5.22
2023-05-11T15:31:23.770Z,5.18
2023-05-11T15:33:50.619Z,5.90
2023-05-11T15:36:17.482Z,5.88
2023-05-11T15:38:44.855Z,5.97
2023-05-11T15:41:11.904Z,6.18
2023-05-11T15:43:38.547Z,6.85
2023-05-11T15:46:05.889Z,6.25
2023-05-11T15:48:32.892Z,6.63
2023-05-11T15:51:01.121Z,6.25
2023-05-11T15:53:27.939Z,6.28
2023-05-11T15:55:55.804Z,5.95
2023-05-11T15:58:23.103Z,7.00
2023-05-11T16:00:50.025Z,7.72
2023-05-11T16:03:17.228Z,6.68
2023-05-11T16:05:44.782Z,7.05
2023-05-11T16:08:11.906Z,7.00
2023-05-11T16:10:39.003Z,7.50
2023-05-11T16:13:05.767Z,7.40
2023-05-11T16:15:33.078Z,7.22
2023-05-11T16:18:01.577Z,8.40
2023-05-11T16:22:57.110Z,8.00
2023-05-11T16:25:24.264Z,8.13
2023-05-11T16:27:51.002Z,8.43
2023-05-11T16:30:23.069Z,8.48
2023-05-11T16:32:52.456Z,8.68
2023-05-11T16:35:22.622Z,9.30
2023-05-11T16:37:49.442Z,9.40
2023-05-11T16:40:19.213Z,9.10
2023-05-11T16:42:47.330Z,10.63
2023-05-11T16:45:15.055Z,9.30
2023-05-11T16:47:42.106Z,8.98
2023-05-11T16:50:09.316Z,10.45
2023-05-11T16:52:35.937Z,10.23
2023-05-11T16:55:03.614Z,10.82
2023-05-11T16:57:31.524Z,10.68
2023-05-11T16:59:58.163Z,10.98
2023-05-11T17:02:24.940Z,10.68
2023-05-11T17:04:51.579Z,11.25
2023-05-11T17:07:18.101Z,11.68
2023-05-11T17:09:45.406Z,11.65
2023-05-11T17:12:12.067Z,12.30
2023-05-11T17:14:38.629Z,12.02
2023-05-11T17:17:07.309Z,12.65
2023-05-11T17:19:34.503Z,13.73
2023-05-11T17:22:01.144Z,13.18
2023-05-11T17:24:28.454Z,12.23
2023-05-11T17:26:55.238Z,12.60
2023-05-11T17:29:22.279Z,12.90
2023-05-11T17:31:51.314Z,12.88
2023-05-11T17:34:18.861Z,12.73
2023-05-11T17:36:45.749Z,13.35
2023-05-11T17:39:12.913Z,12.63
2023-05-11T17:41:39.666Z,12.80
2023-05-11T17:44:06.303Z,13.43
2023-05-11T17:46:32.962Z,14.10
2023-05-11T17:48:59.952Z,13.93
2023-05-11T17:51:26.578Z,14.30
2023-05-11T17:53:53.413Z,13.35
2023-05-11T17:56:20.088Z,15.38
2023-05-11T17:58:47.546Z,16.05
2023-05-11T18:01:14.225Z,16.10
2023-05-11T18:03:41.812Z,17.42
2023-05-11T18:06:08.979Z,16.83
2023-05-11T18:08:38.712Z,18.27
2023-05-11T18:11:05.334Z,18.15
2023-05-11T18:13:31.924Z,18.55
2023-05-11T18:15:59.598Z,17.77
2023-05-11T18:18:26.392Z,19.13
2023-05-11T18:20:53.728Z,19.40
2023-05-11T18:23:20.283Z,19.83
2023-05-11T18:25:46.856Z,19.00
2023-05-11T18:28:13.620Z,19.98
2023-05-11T18:30:40.358Z,19.15
2023-05-11T18:33:06.976Z,20.88
2023-05-11T18:35:34.164Z,20.23
2023-05-11T18:38:03.158Z,19.73
2023-05-11T18:40:29.697Z,19.42
2023-05-11T18:42:56.513Z,19.52
2023-05-11T18:45:23.250Z,20.40
2023-05-11T18:47:50.985Z,21.50
2023-05-11T18:50:17.777Z,20.40
2023-05-11T18:52:44.553Z,20.58
2023-05-11T18:55:11.143Z,21.45
2023-05-11T18:57:39.380Z,20.02
2023-05-11T19:00:07.197Z,19.95
2023-05-11T19:02:33.953Z,20.60
2023-05-11T19:05:01.203Z,20.52
2023-05-11T19:07:28.699Z,20.80
2023-05-11T19:09:55.452Z,19.48
2023-05-11T19:12:22.412Z,20.90
2023-05-11T19:14:48.966Z,21.20
2023-05-11T19:17:15.623Z,21.25
2023-05-11T19:19:42.250Z,21.63
2023-05-11T19:22:09.322Z,23.58
2023-05-11T19:24:36.174Z,23.77
2023-05-11T19:27:07.351Z,23.25
2023-05-11T19:29:35.322Z,23.70
2023-05-11T19:32:02.586Z,23.60
2023-05-11T19:34:29.227Z,24.58
2023-05-11T19:36:55.774Z,25.20
2023-05-11T19:39:22.397Z,24.48
2023-05-11T19:41:49.154Z,26.15
2023-05-11T19:44:15.862Z,24.52
2023-05-11T19:46:46.729Z,25.45
2023-05-11T19:49:15.064Z,24.98
2023-05-11T19:51:42.317Z,25.33
2023-05-11T19:54:09.513Z,24.50
2023-05-11T19:56:36.154Z,23.95
2023-05-11T19:59:03.794Z,24.42
2023-05-11T20:01:30.561Z,25.83
2023-05-11T20:03:57.693Z,24.90
2023-05-11T20:06:25.396Z,23.88
2023-05-11T20:08:52.711Z,25.33
2023-05-11T20:11:19.741Z,25.60
2023-05-11T20:13:47.639Z,25.40
2023-05-11T20:16:14.511Z,26.58
2023-05-11T20:18:41.392Z,24.52
2023-05-11T20:21:07.968Z,25.05
2023-05-11T20:23:35.937Z,24.25
2023-05-11T20:26:04.214Z,25.08
2023-05-11T20:28:31.008Z,22.75
2023-05-11T20:30:57.592Z,23.60
2023-05-11T20:35:53.806Z,22.70
2023-05-11T20:38:20.585Z,21.00
2023-05-11T20:40:47.207Z,19.95
2023-05-11T20:43:15.006Z,20.67
2023-05-11T20:45:41.967Z,19.67
2023-05-11T20:48:08.845Z,18.90
2023-05-11T20:50:35.506Z,16.58
2023-05-11T20:53:02.217Z,16.92
2023-05-11T20:55:28.983Z,17.35
2023-05-11T20:57:55.662Z,16.85
2023-05-11T21:00:22.557Z,16.27
2023-05-11T21:02:49.771Z,16.52
2023-05-11T21:05:17.058Z,16.65
2023-05-11T21:07:43.755Z,16.15
2023-05-11T21:10:11.994Z,16.55
2023-05-11T21:12:38.621Z,16.60
2023-05-11T21:15:06.849Z,16.77
2023-05-11T21:17:33.748Z,16.27
2023-05-11T21:20:00.435Z,16.10
2023-05-11T21:22:27.359Z,16.45
2023-05-11T21:24:57.019Z,15.88
2023-05-11T21:27:23.653Z,15.15
2023-05-11T21:29:51.138Z,15.15
2023-05-11T21:32:17.728Z,15.32
2023-05-11T21:34:44.663Z,15.57
2023-05-11T21:37:14.541Z,16.08
2023-05-11T21:39:42.071Z,16.35
2023-05-11T21:42:08.622Z,16.00
2023-05-11T21:44:35.437Z,15.35
2023-05-11T21:47:02.068Z,15.10
2023-05-11T21:49:28.718Z,15.00
2023-05-11T21:51:59.749Z,15.27
2023-05-11T21:57:10.709Z,15.32
2023-05-11T21:59:59.897Z,15.40
2023-05-11T22:02:36.656Z,16.20
2023-05-11T22:08:13.353Z,15.95
2023-05-11T22:13:44.786Z,14.55
2023-05-11T22:16:15.184Z,13.85
2023-05-11T22:21:35.068Z,13.25
2023-05-11T22:24:36.855Z,14.00
2023-05-11T22:27:23.153Z,13.40
2023-05-11T22:30:01.837Z,13.32
2023-05-11T22:38:24.517Z,13.00
2023-05-11T22:40:54.446Z,14.60
2023-05-11T22:43:29.374Z,14.18
2023-05-11T22:46:23.574Z,13.57
2023-05-11T22:51:37.417Z,13.43
2023-05-11T22:57:26.963Z,14.48
2023-05-11T23:00:02.573Z,14.82
2023-05-11T23:02:40.009Z,14.95
2023-05-11T23:05:12.521Z,16.95
2023-05-11T23:07:45.371Z,15.68
2023-05-11T23:13:15.837Z,16.77
2023-05-11T23:18:28.796Z,16.42
2023-05-11T23:21:03.421Z,16.17
2023-05-11T23:23:39.050Z,15.98
2023-05-11T23:26:20.875Z,17.63
2023-05-11T23:28:57.082Z,17.88
2023-05-11T23:31:35.688Z,18.45
2023-05-11T23:34:27.949Z,18.00
2023-05-11T23:36:58.911Z,19.52
2023-05-11T23:39:34.170Z,19.90
2023-05-11T23:42:15.077Z,20.30
2023-05-11T23:44:54.402Z,21.05
2023-05-11T23:50:34.145Z,21.50
2023-05-11T23:53:06.825Z,22.25
2023-05-11T23:55:43.542Z,24.27
2023-05-11T23:58:29.178Z,22.75
